Time;durP1;ratioP1;P1;durP2;ratioP2;P2;SDS_P1;SDS_P2;PMS_P1;PMS_P2;Temp;Humidity;BMP_temperature;BMP_pressure;BME280_temperature;BME280_humidity;BME280_pressure;Samples;Min_cycle;Max_cycle;Signal;HPM_P1;HPM_P2
2020/12/22 00:00:43;;;;;;;1.90;0.83;;;24.70;80.20;;;;;;5072941;28;20648;-75
2020/12/22 00:03:10;;;;;;;4.50;0.90;;;24.70;80.00;;;;;;5073526;28;20567;-74
2020/12/22 00:05:38;;;;;;;1.23;0.67;;;24.70;80.20;;;;;;5072532;28;20214;-74
2020/12/22 00:08:12;;;;;;;2.87;0.73;;;24.70;82.30;;;;;;5073732;28;20201;-75
2020/12/22 00:10:40;;;;;;;2.00;0.83;;;24.60;78.70;;;;;;5072833;28;20166;-75
2020/12/22 00:13:07;;;;;;;3.67;1.00;;;24.40;79.00;;;;;;5073148;28;20198;-76
2020/12/22 00:15:34;;;;;;;2.20;0.67;;;24.30;79.90;;;;;;5073291;28;20265;-76
2020/12/22 00:18:02;;;;;;;1.87;0.80;;;24.40;80.20;;;;;;5072806;28;20208;-76
2020/12/22 00:20:29;;;;;;;1.63;0.80;;;24.70;79.10;;;;;;5072693;28;20176;-75
2020/12/22 00:22:57;;;;;;;3.00;0.70;;;24.80;78.10;;;;;;5073180;28;20179;-75
2020/12/22 00:25:24;;;;;;;4.70;0.80;;;24.90;78.60;;;;;;5072541;28;20230;-75
2020/12/22 00:27:51;;;;;;;1.83;0.90;;;25.20;78.50;;;;;;5073104;28;20269;-76
2020/12/22 00:30:19;;;;;;;1.27;0.70;;;25.40;77.50;;;;;;5072732;28;20181;-75
2020/12/22 00:32:46;;;;;;;1.30;0.60;;;25.50;75.70;;;;;;5072845;28;20534;-76
2020/12/22 00:35:14;;;;;;;0.80;0.47;;;25.50;72.90;;;;;;5072610;28;20621;-76
2020/12/22 00:37:41;;;;;;;0.63;0.40;;;25.40;73.10;;;;;;5072116;28;20214;-75
2020/12/22 00:40:08;;;;;;;1.13;0.80;;;25.40;72.80;;;;;;5072215;28;20171;-75
2020/12/22 00:42:36;;;;;;;1.03;0.60;;;25.20;73.40;;;;;;5071721;28;20614;-74
2020/12/22 00:45:04;;;;;;;1.20;0.40;;;25.30;75.70;;;;;;5063943;28;20196;-76
2020/12/22 00:47:31;;;;;;;0.97;0.57;;;25.50;73.40;;;;;;5071087;28;20167;-76
2020/12/22 00:49:58;;;;;;;1.60;0.60;;;25.40;73.30;;;;;;5070982;28;20522;-76
2020/12/22 00:52:26;;;;;;;2.87;0.50;;;25.60;72.50;;;;;;5070385;28;20187;-76
2020/12/22 00:54:53;;;;;;;0.83;0.60;;;25.90;72.20;;;;;;5070657;28;20644;-76
2020/12/22 00:57:20;;;;;;;1.57;0.60;;;26.00;71.10;;;;;;5071340;28;20280;-75
2020/12/22 00:59:48;;;;;;;0.40;0.40;;;26.00;70.60;;;;;;5063092;28;20640;-76
2020/12/22 01:02:15;;;;;;;2.00;0.53;;;26.00;70.20;;;;;;5065525;28;20187;-75
2020/12/22 01:04:43;;;;;;;0.60;0.40;;;25.90;70.20;;;;;;5068148;28;20172;-75
2020/12/22 01:07:10;;;;;;;2.77;0.50;;;25.80;70.80;;;;;;5065631;28;20280;-76
2020/12/22 01:09:37;;;;;;;1.50;0.60;;;25.80;69.80;;;;;;5076058;28;20186;-76
2020/12/22 01:12:06;;;;;;;0.83;0.70;;;26.00;72.10;;;;;;5075465;28;20183;-75
2020/12/22 01:14:33;;;;;;;1.00;0.60;;;26.30;70.60;;;;;;5075492;28;20175;-77
2020/12/22 01:17:01;;;;;;;1.00;0.50;;;26.20;69.80;;;;;;5076896;28;20172;-76
2020/12/22 01:19:28;;;;;;;2.93;0.43;;;26.10;68.30;;;;;;5074100;28;20236;-78
2020/12/22 01:21:56;;;;;;;0.83;0.40;;;26.10;69.30;;;;;;5073656;28;20617;-77
2020/12/22 01:24:23;;;;;;;2.03;0.77;;;26.30;69.10;;;;;;5074018;28;20713;-76
2020/12/22 01:26:55;;;;;;;0.87;0.57;;;26.40;70.60;;;;;;5073551;28;20257;-76
2020/12/22 01:29:23;;;;;;;1.10;0.57;;;26.50;69.40;;;;;;5076097;28;20207;-77
2020/12/22 01:31:50;;;;;;;0.83;0.40;;;26.50;70.40;;;;;;5074046;28;20180;-77
2020/12/22 01:34:17;;;;;;;4.63;0.80;;;26.60;69.30;;;;;;5072830;28;20186;-76
2020/12/22 01:36:45;;;;;;;0.90;0.63;;;26.70;69.50;;;;;;5075367;28;20183;-76
2020/12/22 01:39:12;;;;;;;2.43;1.03;;;26.80;69.20;;;;;;5075383;28;20240;-75
2020/12/22 01:41:39;;;;;;;1.37;0.60;;;26.70;68.20;;;;;;5072495;28;20179;-75
2020/12/22 01:44:16;;;;;;;4.20;0.60;;;26.70;67.10;;;;;;5067282;28;20175;-76
2020/12/22 01:46:48;;;;;;;1.40;0.60;;;26.70;67.80;;;;;;5074418;28;20627;-74
2020/12/22 01:49:23;;;;;;;0.63;0.50;;;26.80;69.20;;;;;;5054188;28;20657;-73
2020/12/22 01:51:55;;;;;;;1.07;0.60;;;26.80;68.60;;;;;;5056601;28;20179;-75
2020/12/22 01:54:25;;;;;;;0.60;0.50;;;26.80;67.00;;;;;;5074523;28;20179;-74
2020/12/22 01:56:53;;;;;;;0.60;0.50;;;26.70;66.30;;;;;;5073225;28;20657;-74
2020/12/22 01:59:21;;;;;;;2.10;0.40;;;27.00;66.60;;;;;;5074751;28;20176;-75
2020/12/22 02:01:50;;;;;;;4.17;0.70;;;27.20;65.80;;;;;;5076483;28;20697;-76
2020/12/22 02:04:18;;;;;;;2.20;0.73;;;27.00;65.90;;;;;;5078912;28;20187;-75
2020/12/22 02:06:45;;;;;;;2.47;0.57;;;26.80;65.90;;;;;;5074040;28;20574;-75
2020/12/22 02:09:12;;;;;;;0.97;0.50;;;26.80;66.30;;;;;;5076021;28;20168;-76
2020/12/22 02:11:41;;;;;;;0.47;0.40;;;26.40;67.20;;;;;;5075431;28;20197;-75
2020/12/22 02:14:10;;;;;;;0.87;0.57;;;26.30;67.40;;;;;;5075555;28;20203;-75
2020/12/22 02:16:39;;;;;;;2.63;0.57;;;26.10;66.00;;;;;;5074977;28;20186;-74
2020/12/22 02:19:06;;;;;;;0.80;0.70;;;26.20;67.00;;;;;;5074969;28;20171;-74
2020/12/22 02:21:34;;;;;;;1.00;0.70;;;26.40;65.50;;;;;;5074570;28;20602;-74
2020/12/22 02:24:01;;;;;;;3.07;0.90;;;27.00;66.50;;;;;;5074023;28;20243;-75
2020/12/22 02:26:28;;;;;;;0.80;0.70;;;27.00;64.40;;;;;;5068929;28;20227;-73
2020/12/22 02:28:57;;;;;;;0.57;0.57;;;27.00;63.00;;;;;;5074691;28;20640;-73
2020/12/22 02:31:25;;;;;;;2.90;0.80;;;27.00;63.10;;;;;;5073645;28;20175;-75
2020/12/22 02:33:53;;;;;;;1.70;0.70;;;26.80;63.20;;;;;;5074216;28;20281;-75
2020/12/22 02:36:32;;;;;;;0.53;0.50;;;26.50;62.40;;;;;;5073374;28;20219;-77
2020/12/22 02:39:05;;;;;;;1.27;0.77;;;26.50;63.90;;;;;;5073079;28;20178;-81
2020/12/22 02:41:32;;;;;;;3.27;0.60;;;26.70;65.00;;;;;;5074402;28;20274;-81
2020/12/22 02:44:00;;;;;;;2.57;0.70;;;26.90;62.60;;;;;;5070019;28;20434;-76
2020/12/22 02:46:27;;;;;;;1.40;0.77;;;27.00;63.10;;;;;;5070541;28;20262;-76
2020/12/22 02:49:03;;;;;;;0.87;0.70;;;27.00;63.40;;;;;;5069706;28;20630;-82
2020/12/22 02:51:34;;;;;;;2.03;0.80;;;26.70;63.70;;;;;;5069930;28;20240;-80
2020/12/22 02:54:05;;;;;;;0.70;0.60;;;27.30;61.80;;;;;;5069683;28;20221;-81
2020/12/22 02:56:33;;;;;;;1.40;0.70;;;28.20;60.30;;;;;;5072964;28;20237;-78
2020/12/22 02:59:01;;;;;;;1.83;0.60;;;28.30;59.70;;;;;;5068326;28;20187;-77
2020/12/22 03:01:28;;;;;;;0.60;0.60;;;28.30;60.40;;;;;;5072823;28;20187;-77
2020/12/22 03:03:56;;;;;;;1.57;0.40;;;28.00;60.60;;;;;;5071373;28;20201;-75
2020/12/22 03:06:24;;;;;;;3.00;0.73;;;27.80;51.30;;;;;;5070779;28;20211;-75
2020/12/22 03:08:51;;;;;;;0.90;0.60;;;27.40;58.90;;;;;;5071150;28;20187;-74
2020/12/22 03:11:19;;;;;;;0.60;0.50;;;27.50;60.10;;;;;;5067082;28;20175;-75
2020/12/22 03:13:46;;;;;;;2.20;0.40;;;27.30;62.10;;;;;;5070953;28;20268;-75
2020/12/22 03:16:16;;;;;;;2.20;0.67;;;27.50;62.50;;;;;;5068757;28;20261;-76
2020/12/22 03:18:44;;;;;;;3.27;0.40;;;27.50;57.50;;;;;;5070514;28;20187;-76
2020/12/22 03:21:12;;;;;;;0.60;0.33;;;27.30;50.70;;;;;;5069150;28;20172;-75
2020/12/22 03:23:40;;;;;;;4.73;0.83;;;27.60;50.70;;;;;;5066097;28;20223;-76
2020/12/22 03:26:07;;;;;;;1.03;0.20;;;27.60;48.80;;;;;;5068618;28;20342;-74
2020/12/22 03:28:34;;;;;;;0.30;0.30;;;27.30;46.40;;;;;;5068724;28;20191;-75
2020/12/22 03:31:02;;;;;;;0.37;0.30;;;27.20;46.60;;;;;;5070403;28;20198;-73
2020/12/22 03:33:29;;;;;;;1.40;0.40;;;27.20;47.80;;;;;;5069740;28;20183;-76
2020/12/22 03:35:57;;;;;;;0.33;0.30;;;27.20;46.80;;;;;;5061980;28;20191;-73
2020/12/22 03:38:24;;;;;;;0.90;0.30;;;27.20;46.70;;;;;;5073058;28;20171;-75
2020/12/22 03:40:51;;;;;;;0.20;0.20;;;27.40;45.60;;;;;;5069379;28;20190;-76
2020/12/22 03:43:18;;;;;;;1.90;0.50;;;27.50;46.40;;;;;;5072413;28;20262;-77
2020/12/22 03:45:49;;;;;;;0.40;0.30;;;27.70;45.90;;;;;;5072538;28;20645;-76
2020/12/22 03:48:16;;;;;;;0.87;0.40;;;27.80;46.20;;;;;;5071927;28;20187;-77
2020/12/22 03:50:46;;;;;;;0.87;0.50;;;27.60;45.30;;;;;;5070537;28;20187;-75
2020/12/22 03:53:14;;;;;;;0.67;0.20;;;27.50;45.90;;;;;;5052000;28;20712;-76
2020/12/22 03:55:41;;;;;;;3.90;0.40;;;27.60;46.60;;;;;;5067454;28;20245;-76
2020/12/22 03:58:08;;;;;;;0.93;0.40;;;27.60;46.70;;;;;;5071423;28;20542;-77
2020/12/22 04:00:36;;;;;;;0.30;0.30;;;27.60;45.80;;;;;;5053336;28;20233;-76
2020/12/22 04:03:03;;;;;;;0.30;0.30;;;27.60;45.90;;;;;;5073199;28;20225;-76
2020/12/22 04:05:30;;;;;;;2.10;0.40;;;27.70;46.50;;;;;;5070838;28;20211;-74
2020/12/22 04:07:58;;;;;;;0.30;0.30;;;28.00;45.30;;;;;;5071749;28;20182;-77
2020/12/22 04:10:25;;;;;;;0.30;0.30;;;28.10;45.00;;;;;;5068210;28;20254;-74
2020/12/22 04:12:52;;;;;;;0.63;0.30;;;28.30;44.00;;;;;;5072128;28;20175;-77
2020/12/22 04:15:20;;;;;;;2.37;0.30;;;28.00;44.20;;;;;;5071307;28;20258;-76
2020/12/22 04:17:47;;;;;;;3.47;0.47;;;28.20;43.80;;;;;;5063168;28;20186;-77
2020/12/22 04:20:15;;;;;;;0.40;0.30;;;28.40;43.80;;;;;;5072557;28;20209;-77
2020/12/22 04:22:42;;;;;;;0.97;0.50;;;28.80;43.40;;;;;;5072464;28;20180;-76
2020/12/22 04:25:09;;;;;;;0.30;0.30;;;28.90;43.40;;;;;;5064920;28;20219;-76
2020/12/22 04:27:36;;;;;;;3.10;0.47;;;29.20;42.40;;;;;;5052904;28;20674;-75
2020/12/22 04:30:04;;;;;;;0.30;0.30;;;29.20;42.70;;;;;;5059810;28;20174;-75
2020/12/22 04:32:32;;;;;;;2.93;0.30;;;29.20;41.90;;;;;;5067057;28;20322;-74
2020/12/22 04:34:59;;;;;;;0.73;0.40;;;28.60;42.80;;;;;;5061375;28;20172;-76
2020/12/22 04:37:26;;;;;;;1.70;0.33;;;28.10;43.40;;;;;;5063085;28;20186;-78
2020/12/22 04:39:54;;;;;;;0.40;0.40;;;27.90;43.30;;;;;;5067596;28;20254;-75
2020/12/22 04:42:24;;;;;;;0.33;0.33;;;27.60;44.80;;;;;;5071939;28;20701;-75
2020/12/22 04:44:52;;;;;;;0.90;0.40;;;27.60;44.80;;;;;;5053774;28;20180;-77
2020/12/22 04:47:21;;;;;;;0.47;0.30;;;27.70;44.60;;;;;;5052396;28;20212;-77
2020/12/22 04:49:54;;;;;;;0.30;0.30;;;28.00;44.30;;;;;;5070023;28;20535;-79
2020/12/22 04:52:23;;;;;;;0.97;0.40;;;28.20;43.60;;;;;;5067254;28;20187;-76
2020/12/22 04:54:50;;;;;;;0.87;0.30;;;28.60;43.10;;;;;;5065820;28;20177;-77
2020/12/22 04:57:20;;;;;;;1.23;0.40;;;28.40;42.60;;;;;;5067918;28;20171;-76
2020/12/22 04:59:48;;;;;;;0.40;0.40;;;28.30;43.90;;;;;;5066073;28;20210;-76
2020/12/22 05:02:16;;;;;;;2.67;0.43;;;28.30;43.70;;;;;;5059558;28;20666;-76
2020/12/22 05:04:43;;;;;;;2.43;0.60;;;28.80;44.20;;;;;;5066839;28;20595;-75
2020/12/22 05:07:11;;;;;;;0.40;0.33;;;30.10;42.80;;;;;;5067939;28;20214;-77
2020/12/22 05:09:38;;;;;;;1.13;0.30;;;30.80;38.90;;;;;;5064020;28;20227;-75
2020/12/22 05:12:06;;;;;;;0.53;0.40;;;31.00;39.10;;;;;;5069815;28;20538;-75
2020/12/22 05:14:33;;;;;;;1.38;0.40;;;30.60;40.20;;;;;;5067196;28;20179;-76
2020/12/22 05:17:00;;;;;;;0.53;0.30;;;30.20;40.90;;;;;;5059664;28;20206;-75
2020/12/22 05:19:34;;;;;;;2.17;0.30;;;30.50;40.80;;;;;;5067764;28;20178;-76
2020/12/22 05:22:06;;;;;;;1.95;0.40;;;30.80;38.70;;;;;;5064888;28;20189;-75
2020/12/22 05:24:38;;;;;;;1.13;0.37;;;30.00;39.50;;;;;;5064621;28;20219;-76
2020/12/22 05:27:07;;;;;;;1.27;0.50;;;30.10;39.90;;;;;;5069605;28;20183;-77
2020/12/22 05:29:35;;;;;;;0.53;0.40;;;30.50;40.20;;;;;;5066076;28;20183;-78
2020/12/22 05:32:04;;;;;;;1.50;0.30;;;30.00;39.50;;;;;;5069502;28;20676;-77
2020/12/22 05:34:31;;;;;;;1.53;0.37;;;29.40;40.10;;;;;;5067455;28;20262;-75
2020/12/22 05:37:00;;;;;;;0.30;0.27;;;30.20;39.80;;;;;;5063702;28;20207;-75
2020/12/22 05:39:27;;;;;;;2.00;0.30;;;30.70;36.80;;;;;;5063211;28;20542;-76
2020/12/22 05:41:55;;;;;;;0.30;0.30;;;31.50;36.20;;;;;;5070805;28;20248;-76
2020/12/22 05:44:26;;;;;;;0.32;0.32;;;31.60;34.50;;;;;;5071051;28;20236;-73
2020/12/22 05:46:54;;;;;;;1.23;0.83;;;30.90;34.20;;;;;;5068416;28;20191;-75
2020/12/22 05:49:22;;;;;;;2.40;0.33;;;30.00;35.60;;;;;;5063553;28;20530;-76
2020/12/22 05:51:52;;;;;;;0.30;0.30;;;29.60;37.10;;;;;;5062348;28;20187;-76
2020/12/22 05:54:20;;;;;;;1.27;0.40;;;29.30;36.20;;;;;;5074645;28;20247;-77
2020/12/22 05:56:47;;;;;;;0.30;0.30;;;29.40;37.40;;;;;;5079808;28;20211;-76
2020/12/22 05:59:22;;;;;;;0.20;0.20;;;29.20;36.60;;;;;;5090551;28;20172;-75
2020/12/22 06:01:49;;;;;;;0.77;0.60;;;29.20;36.60;;;;;;5079883;28;20251;-76
2020/12/22 06:04:20;;;;;;;0.93;0.40;;;29.00;36.60;;;;;;5073320;28;20542;-74
2020/12/22 06:06:48;;;;;;;0.37;0.30;;;28.80;36.30;;;;;;5070563;28;20175;-74
2020/12/22 06:09:15;;;;;;;0.87;0.30;;;28.20;36.90;;;;;;5073697;28;20263;-76
2020/12/22 06:11:43;;;;;;;1.67;0.40;;;28.10;37.00;;;;;;5073969;28;20718;-75
2020/12/22 06:14:12;;;;;;;2.43;0.40;;;28.00;36.90;;;;;;5074426;28;20183;-74
2020/12/22 06:16:39;;;;;;;0.73;0.40;;;28.00;36.80;;;;;;5074121;28;20206;-77
2020/12/22 06:19:08;;;;;;;0.73;0.43;;;28.60;36.50;;;;;;5074810;28;20179;-76
2020/12/22 06:21:37;;;;;;;3.33;0.50;;;28.80;35.80;;;;;;5073879;28;20198;-75
2020/12/22 06:24:05;;;;;;;1.73;0.30;;;28.50;36.40;;;;;;5074334;28;20633;-76
2020/12/22 06:26:32;;;;;;;0.80;0.40;;;28.40;36.40;;;;;;5073110;28;20186;-75
2020/12/22 06:28:59;;;;;;;0.30;0.30;;;28.20;36.70;;;;;;5074839;28;20203;-76
2020/12/22 06:31:34;;;;;;;2.53;0.43;;;28.30;36.20;;;;;;5075011;28;20190;-76
2020/12/22 06:34:01;;;;;;;10.30;0.67;;;27.90;36.30;;;;;;5075032;28;20171;-76
2020/12/22 06:36:28;;;;;;;0.63;0.40;;;27.50;35.40;;;;;;5075174;28;20198;-77
2020/12/22 06:38:59;;;;;;;1.47;0.70;;;27.30;36.00;;;;;;5074331;28;20175;-75
2020/12/22 06:41:34;;;;;;;2.37;0.63;;;27.20;36.40;;;;;;5058472;28;20176;-76
2020/12/22 06:44:18;;;;;;;0.77;0.50;;;27.20;36.20;;;;;;5071089;28;20534;-77
2020/12/22 06:46:47;;;;;;;0.80;0.50;;;27.10;36.90;;;;;;5071530;28;20179;-75
2020/12/22 06:49:14;;;;;;;0.77;0.43;;;27.10;37.10;;;;;;5066649;28;20187;-75
2020/12/22 06:51:43;;;;;;;0.80;0.40;;;27.10;36.80;;;;;;5067679;28;20218;-76
2020/12/22 06:54:16;;;;;;;1.13;0.60;;;27.20;37.50;;;;;;5066947;28;20172;-77
2020/12/22 06:56:49;;;;;;;0.77;0.40;;;27.10;35.90;;;;;;5061021;28;20207;-75
2020/12/22 06:59:42;;;;;;;1.37;0.30;;;27.00;36.70;;;;;;5074873;28;20167;-74
2020/12/22 07:02:42;;;;;;;0.30;0.30;;;26.80;36.80;;;;;;5071405;28;20175;-78
2020/12/22 07:05:09;;;;;;;0.93;0.40;;;26.80;37.00;;;;;;5050415;28;20270;-75
2020/12/22 07:08:00;;;;;;;3.07;0.50;;;26.80;37.40;;;;;;5075330;28;20633;-76
2020/12/22 07:10:31;;;;;;;2.03;0.60;;;26.70;37.30;;;;;;5075630;28;20603;-76
2020/12/22 07:12:59;;;;;;;1.43;0.60;;;26.60;38.60;;;;;;5075542;28;20641;-76
2020/12/22 07:15:34;;;;;;;0.67;0.40;;;26.60;38.20;;;;;;5075852;28;20248;-80
2020/12/22 07:18:11;;;;;;;1.57;0.50;;;26.50;39.00;;;;;;5075041;28;20702;-76
2020/12/22 07:20:44;;;;;;;3.53;0.70;;;26.50;39.10;;;;;;5075146;28;20179;-76
2020/12/22 07:23:12;;;;;;;1.10;0.57;;;26.50;39.50;;;;;;5075309;28;20543;-76
2020/12/22 07:25:40;;;;;;;0.70;0.50;;;26.40;38.20;;;;;;5074488;28;20253;-76
2020/12/22 07:28:11;;;;;;;1.53;0.60;;;26.50;38.20;;;;;;5073417;28;20191;-75
2020/12/22 07:30:38;;;;;;;1.17;0.87;;;26.60;37.30;;;;;;5073758;28;20172;-77
2020/12/22 07:33:06;;;;;;;1.10;0.70;;;26.60;36.90;;;;;;5073838;28;20583;-77
2020/12/22 07:35:34;;;;;;;1.57;0.60;;;26.70;37.40;;;;;;5073481;28;20199;-77
2020/12/22 07:38:11;;;;;;;1.10;0.87;;;26.70;36.60;;;;;;5073179;28;20277;-76
2020/12/22 07:40:39;;;;;;;1.37;0.70;;;26.60;36.10;;;;;;5073568;28;20762;-76
2020/12/22 07:43:12;;;;;;;1.27;0.70;;;26.40;35.90;;;;;;5073210;28;20175;-75
2020/12/22 07:45:52;;;;;;;3.23;0.63;;;26.30;35.10;;;;;;5072201;28;20538;-77
2020/12/22 07:48:20;;;;;;;2.70;0.80;;;26.30;35.30;;;;;;5057988;28;20202;-76
2020/12/22 07:50:54;;;;;;;0.53;0.53;;;26.20;35.00;;;;;;5052991;28;20164;-75
2020/12/22 07:53:22;;;;;;;1.57;0.57;;;26.10;34.50;;;;;;5067058;28;20682;-75
2020/12/22 07:55:49;;;;;;;1.40;0.50;;;26.10;34.90;;;;;;5072015;28;20235;-80
2020/12/22 07:58:17;;;;;;;6.83;0.63;;;26.00;34.10;;;;;;5072390;28;20174;-75
2020/12/22 08:00:45;;;;;;;3.03;0.70;;;25.90;34.40;;;;;;5073317;28;20179;-74
2020/12/22 08:03:19;;;;;;;0.60;0.60;;;25.90;34.50;;;;;;5073229;28;20633;-74
2020/12/22 08:06:03;;;;;;;1.57;0.70;;;25.90;34.70;;;;;;5071832;28;20668;-75
2020/12/22 08:08:31;;;;;;;3.43;0.70;;;25.90;35.30;;;;;;5071432;28;20657;-74
2020/12/22 08:10:58;;;;;;;1.23;0.60;;;25.90;35.60;;;;;;5072451;28;20205;-75
2020/12/22 08:13:30;;;;;;;1.50;0.60;;;25.90;36.00;;;;;;5072960;28;20272;-75
2020/12/22 08:15:59;;;;;;;1.33;0.50;;;25.90;35.60;;;;;;5073001;28;20207;-75
2020/12/22 08:18:36;;;;;;;1.33;0.60;;;25.90;35.60;;;;;;5072834;28;20182;-74
2020/12/22 08:21:04;;;;;;;1.00;0.70;;;26.00;36.10;;;;;;5071464;28;20175;-75
2020/12/22 08:23:33;;;;;;;2.97;0.67;;;26.00;35.70;;;;;;5072906;28;20194;-75
2020/12/22 08:26:00;;;;;;;1.33;0.67;;;26.00;35.80;;;;;;5063413;28;20245;-76
2020/12/22 08:28:30;;;;;;;1.80;0.70;;;25.90;36.20;;;;;;5061442;28;20290;-76
2020/12/22 08:31:13;;;;;;;0.60;0.50;;;25.80;36.40;;;;;;5072695;28;20171;-75
2020/12/22 08:33:50;;;;;;;1.27;0.50;;;25.70;37.00;;;;;;5071930;28;20190;-76
2020/12/22 08:36:19;;;;;;;1.70;0.67;;;25.60;37.20;;;;;;5071926;28;20289;-76
2020/12/22 08:38:47;;;;;;;1.80;0.70;;;25.60;37.50;;;;;;5071421;28;20186;-76
2020/12/22 08:41:22;;;;;;;5.10;0.70;;;25.50;37.70;;;;;;5072343;28;20176;-77
2020/12/22 08:43:54;;;;;;;0.80;0.53;;;25.40;37.90;;;;;;5066011;28;20244;-76
2020/12/22 08:46:23;;;;;;;4.33;0.80;;;25.30;38.10;;;;;;5071973;28;20183;-74
2020/12/22 08:48:50;;;;;;;0.63;0.50;;;25.30;38.70;;;;;;5070766;28;20180;-77
2020/12/22 08:51:27;;;;;;;11.30;1.23;;;25.30;38.40;;;;;;5064015;28;20179;-76
2020/12/22 08:53:56;;;;;;;1.00;0.53;;;25.20;38.70;;;;;;5071917;28;20213;-75
2020/12/22 08:56:25;;;;;;;2.40;0.87;;;25.10;38.50;;;;;;5071427;28;20210;-75
2020/12/22 08:59:00;;;;;;;1.83;0.77;;;25.10;39.00;;;;;;5072466;28;20183;-76
2020/12/22 09:01:49;;;;;;;1.20;0.77;;;25.00;39.10;;;;;;5072517;28;20254;-76
2020/12/22 09:04:16;;;;;;;2.93;0.60;;;24.90;39.10;;;;;;5071881;28;20232;-76
2020/12/22 09:06:44;;;;;;;2.70;0.80;;;24.80;39.80;;;;;;5071228;28;20182;-76
2020/12/22 09:09:30;;;;;;;0.83;0.63;;;24.80;40.20;;;;;;5071337;28;20622;-76
2020/12/22 09:12:09;;;;;;;6.47;0.80;;;24.70;41.10;;;;;;5061042;28;20184;-78
2020/12/22 09:14:49;;;;;;;0.73;0.57;;;24.60;40.60;;;;;;5067803;28;20480;-75
2020/12/22 09:17:30;;;;;;;2.43;0.70;;;24.60;40.80;;;;;;5066811;28;20352;-76
2020/12/22 09:19:58;;;;;;;2.20;0.40;;;24.50;41.00;;;;;;5068316;28;20767;-75
2020/12/22 09:22:26;;;;;;;0.93;0.60;;;24.50;41.50;;;;;;5070278;28;20183;-76
2020/12/22 09:24:55;;;;;;;4.23;0.60;;;24.50;41.30;;;;;;5063707;28;20310;-76
2020/12/22 09:27:29;;;;;;;2.07;0.70;;;24.40;41.60;;;;;;5064444;28;20665;-78
2020/12/22 09:29:57;;;;;;;0.83;0.70;;;24.40;41.60;;;;;;5066025;28;20630;-76
2020/12/22 09:32:24;;;;;;;2.83;0.50;;;24.30;42.10;;;;;;5063963;28;20184;-75
2020/12/22 09:34:52;;;;;;;1.70;0.73;;;24.30;42.40;;;;;;5066092;28;20186;-75
2020/12/22 09:37:22;;;;;;;2.83;0.70;;;24.20;42.50;;;;;;5068708;28;20231;-75
2020/12/22 09:39:51;;;;;;;1.40;0.60;;;24.10;42.60;;;;;;5064370;28;20183;-74
2020/12/22 09:42:24;;;;;;;1.60;0.50;;;24.10;42.90;;;;;;5067715;28;20298;-75
2020/12/22 09:44:52;;;;;;;0.80;0.70;;;24.10;43.20;;;;;;5064969;28;20236;-74
2020/12/22 09:47:19;;;;;;;1.43;0.63;;;24.10;43.40;;;;;;5068206;28;20176;-75
2020/12/22 09:49:47;;;;;;;2.83;1.00;;;24.00;43.10;;;;;;5065442;28;20664;-74
2020/12/22 09:52:14;;;;;;;2.30;0.70;;;24.00;43.40;;;;;;5067301;28;20180;-75
2020/12/22 09:54:42;;;;;;;2.07;0.80;;;24.00;42.70;;;;;;5066888;28;20191;-74
2020/12/22 09:57:09;;;;;;;2.30;0.67;;;24.00;41.40;;;;;;5066720;28;20300;-74
2020/12/22 09:59:36;;;;;;;1.10;0.70;;;24.00;40.80;;;;;;5067431;28;20226;-75
2020/12/22 10:02:04;;;;;;;0.97;0.73;;;23.90;39.30;;;;;;5063685;28;20187;-74
2020/12/22 10:04:34;;;;;;;1.90;0.80;;;23.90;39.90;;;;;;5065820;28;20172;-74
2020/12/22 10:07:03;;;;;;;3.10;1.07;;;23.80;39.30;;;;;;5072383;28;20179;-74
2020/12/22 10:09:30;;;;;;;1.03;0.70;;;23.80;39.40;;;;;;5058063;28;20218;-76
2020/12/22 10:11:58;;;;;;;3.13;0.93;;;23.70;39.70;;;;;;5069406;28;20175;-75
2020/12/22 10:14:25;;;;;;;2.80;0.60;;;23.70;39.70;;;;;;5068531;28;20183;-79
2020/12/22 10:16:52;;;;;;;2.20;0.50;;;23.60;39.60;;;;;;5069372;28;20302;-75
2020/12/22 10:19:20;;;;;;;0.63;0.50;;;23.60;39.90;;;;;;5069549;28;20656;-75
2020/12/22 10:21:47;;;;;;;2.00;0.80;;;23.50;40.10;;;;;;5063686;28;20184;-76
2020/12/22 10:24:14;;;;;;;1.00;0.50;;;23.40;40.30;;;;;;5058249;28;20246;-76
2020/12/22 10:26:41;;;;;;;0.70;0.50;;;23.40;40.60;;;;;;5062606;28;20183;-75
2020/12/22 10:29:09;;;;;;;1.47;0.63;;;23.40;40.70;;;;;;5065356;28;20232;-76
2020/12/22 10:31:36;;;;;;;1.37;0.83;;;23.30;41.20;;;;;;5060695;28;20642;-75
2020/12/22 10:34:03;;;;;;;6.33;0.80;;;23.20;41.60;;;;;;5065150;28;20641;-74
2020/12/22 10:36:32;;;;;;;0.57;0.40;;;23.20;42.70;;;;;;5063406;28;20268;-75
2020/12/22 10:38:59;;;;;;;0.93;0.60;;;23.10;42.10;;;;;;5064541;28;20215;-77
2020/12/22 10:41:26;;;;;;;3.33;0.70;;;23.10;42.70;;;;;;5064609;28;20187;-78
2020/12/22 10:43:54;;;;;;;1.73;0.60;;;23.00;42.40;;;;;;5063291;28;20187;-75
2020/12/22 10:46:22;;;;;;;0.83;0.47;;;23.00;42.60;;;;;;5063570;28;20570;-75
2020/12/22 10:48:49;;;;;;;3.33;0.50;;;23.00;42.90;;;;;;5070734;28;20214;-76
2020/12/22 10:51:17;;;;;;;0.73;0.60;;;23.00;42.90;;;;;;5065901;28;20192;-77
2020/12/22 10:53:44;;;;;;;0.77;0.50;;;22.90;43.10;;;;;;5063061;28;20180;-77
2020/12/22 10:56:13;;;;;;;1.50;0.83;;;22.80;43.30;;;;;;5062125;28;20213;-75
2020/12/22 10:58:44;;;;;;;0.53;0.40;;;22.80;42.10;;;;;;5066043;28;20240;-73
2020/12/22 11:01:15;;;;;;;0.57;0.40;;;22.70;40.80;;;;;;5064172;28;20653;-75
2020/12/22 11:03:44;;;;;;;2.03;0.70;;;22.70;41.70;;;;;;5071630;28;20598;-79
2020/12/22 11:08:47;;;;;;;2.10;0.60;;;22.60;41.50;;;;;;5065091;28;20186;-75
2020/12/22 11:11:15;;;;;;;3.30;0.60;;;22.50;41.20;;;;;;5065297;28;20183;-74
2020/12/22 11:13:43;;;;;;;0.70;0.47;;;22.50;40.80;;;;;;5057711;28;20191;-74
2020/12/22 11:16:13;;;;;;;0.47;0.47;;;22.40;40.50;;;;;;5066953;28;20208;-75
2020/12/22 11:18:41;;;;;;;0.50;0.50;;;22.30;40.80;;;;;;5065308;28;20232;-75
2020/12/22 11:21:14;;;;;;;1.10;0.50;;;22.30;40.90;;;;;;5065885;28;20214;-76
2020/12/22 11:23:41;;;;;;;0.67;0.50;;;22.20;41.20;;;;;;5062952;28;20227;-76
2020/12/22 11:26:11;;;;;;;1.10;0.70;;;22.20;41.20;;;;;;5062894;28;20654;-76
2020/12/22 11:28:39;;;;;;;0.97;0.50;;;22.00;41.70;;;;;;5059284;28;20259;-76
2020/12/22 11:31:06;;;;;;;0.73;0.50;;;22.00;41.30;;;;;;5058980;28;20184;-77
2020/12/22 11:33:33;;;;;;;1.23;0.60;;;22.00;41.40;;;;;;5065568;28;20190;-76
2020/12/22 11:36:01;;;;;;;1.40;0.60;;;21.90;41.70;;;;;;5055596;28;20211;-75
2020/12/22 11:38:28;;;;;;;1.30;0.70;;;21.70;42.00;;;;;;5068198;28;20178;-74
2020/12/22 11:40:56;;;;;;;1.40;0.60;;;21.70;42.00;;;;;;5065308;28;20187;-74
2020/12/22 11:43:24;;;;;;;1.33;0.50;;;21.70;41.90;;;;;;5064150;28;20206;-75
2020/12/22 11:45:51;;;;;;;2.43;0.57;;;21.70;41.00;;;;;;5066564;28;20175;-75
2020/12/22 11:48:19;;;;;;;0.87;0.40;;;21.60;41.50;;;;;;5067089;28;20187;-76
2020/12/22 11:50:46;;;;;;;0.43;0.43;;;21.60;41.60;;;;;;5056376;28;20518;-76
2020/12/22 11:53:13;;;;;;;0.50;0.50;;;21.50;40.70;;;;;;5063919;28;20188;-76
2020/12/22 11:55:41;;;;;;;1.30;0.50;;;21.50;41.20;;;;;;5064349;28;20219;-75
2020/12/22 11:58:08;;;;;;;6.03;0.60;;;21.40;40.90;;;;;;5067550;28;20248;-77
2020/12/22 12:00:35;;;;;;;0.60;0.50;;;21.40;40.90;;;;;;5053295;28;20183;-75
2020/12/22 12:03:03;;;;;;;1.13;0.70;;;21.40;41.60;;;;;;5064870;28;20175;-76
2020/12/22 12:05:30;;;;;;;0.40;0.40;;;21.40;41.30;;;;;;5068324;28;20237;-75
2020/12/22 12:07:58;;;;;;;0.93;0.57;;;21.30;41.80;;;;;;5060831;28;20187;-76
2020/12/22 12:10:26;;;;;;;0.93;0.50;;;21.30;41.90;;;;;;5062981;28;20179;-76
2020/12/22 12:12:53;;;;;;;0.60;0.50;;;21.30;41.80;;;;;;5060841;28;20703;-74
2020/12/22 12:15:20;;;;;;;1.40;0.50;;;21.20;42.00;;;;;;5062297;28;20232;-76
2020/12/22 12:17:47;;;;;;;1.13;0.53;;;21.30;42.00;;;;;;5064714;28;20544;-76
2020/12/22 12:20:15;;;;;;;0.70;0.50;;;21.30;42.50;;;;;;5058764;28;20234;-78
2020/12/22 12:22:42;;;;;;;0.93;0.60;;;21.20;42.70;;;;;;5061716;28;20212;-75
2020/12/22 12:25:09;;;;;;;2.37;0.50;;;21.20;42.60;;;;;;5066579;28;20609;-76
2020/12/22 12:27:37;;;;;;;0.60;0.50;;;21.20;42.50;;;;;;5054379;28;20194;-76
2020/12/22 12:30:05;;;;;;;0.47;0.47;;;21.20;42.60;;;;;;5063589;28;20221;-76
2020/12/22 12:32:32;;;;;;;1.03;0.50;;;21.20;42.70;;;;;;5063821;28;20183;-76
2020/12/22 12:35:00;;;;;;;0.50;0.50;;;21.10;43.00;;;;;;5056955;28;20271;-75
2020/12/22 12:37:30;;;;;;;1.43;0.40;;;21.10;43.10;;;;;;5058863;28;20652;-76
2020/12/22 12:39:57;;;;;;;4.20;0.60;;;21.00;43.30;;;;;;5064863;28;20211;-75
2020/12/22 12:42:30;;;;;;;0.40;0.40;;;21.10;43.60;;;;;;5065729;28;20182;-79
2020/12/22 12:44:58;;;;;;;1.17;0.50;;;21.00;44.00;;;;;;5070794;28;20248;-76
2020/12/22 12:47:25;;;;;;;2.50;0.50;;;21.00;44.60;;;;;;5054838;28;20207;-75
2020/12/22 12:49:53;;;;;;;0.80;0.50;;;20.90;45.20;;;;;;5072997;28;20550;-75
2020/12/22 12:52:33;;;;;;;0.60;0.43;;;20.80;45.80;;;;;;5060270;28;20224;-76
2020/12/22 12:55:02;;;;;;;4.93;0.50;;;20.70;46.60;;;;;;5056137;28;20179;-76
2020/12/22 12:57:29;;;;;;;0.40;0.40;;;20.60;47.50;;;;;;5073045;28;20217;-77
2020/12/22 12:59:56;;;;;;;0.47;0.40;;;20.50;47.80;;;;;;5077145;28;20181;-75